createdAt,value
2023-02-11T00:00:35.196Z,31.00
2023-02-11T00:03:26.745Z,21.90
2023-02-11T00:06:14.783Z,27.50
2023-02-11T00:09:03.665Z,23.70
2023-02-11T00:11:52.820Z,23.30
2023-02-11T00:14:40.468Z,26.80
2023-02-11T00:17:28.229Z,24.50
2023-02-11T00:20:16.401Z,25.00
2023-02-11T00:23:04.644Z,28.10
2023-02-11T00:25:52.683Z,22.70
2023-02-11T00:28:41.337Z,31.70
2023-02-11T00:31:30.090Z,32.10
2023-02-11T00:34:18.494Z,26.50
2023-02-11T00:37:06.562Z,30.50
2023-02-11T00:39:54.919Z,28.10
2023-02-11T00:42:43.140Z,31.00
2023-02-11T00:45:31.087Z,30.40
2023-02-11T00:48:19.410Z,30.00
2023-02-11T00:51:07.813Z,31.00
2023-02-11T00:53:55.650Z,31.00
2023-02-11T00:56:44.532Z,29.20
2023-02-11T00:59:32.595Z,30.70
2023-02-11T01:02:22.248Z,32.50
2023-02-11T01:05:10.249Z,31.60
2023-02-11T01:07:58.753Z,28.00
2023-02-11T01:10:54.429Z,34.30
2023-02-11T01:13:43.021Z,32.80
2023-02-11T01:16:31.033Z,31.70
2023-02-11T01:19:19.093Z,36.40
2023-02-11T01:22:07.312Z,35.60
2023-02-11T01:24:55.106Z,33.00
2023-02-11T01:27:43.394Z,33.50
2023-02-11T01:30:31.801Z,37.60
2023-02-11T01:33:19.557Z,32.00
2023-02-11T01:36:08.172Z,35.50
2023-02-11T01:38:55.864Z,32.40
2023-02-11T01:41:43.921Z,35.70
2023-02-11T01:44:37.252Z,31.70
2023-02-11T01:47:25.169Z,34.90
2023-02-11T01:50:13.376Z,35.10
2023-02-11T01:53:21.263Z,40.90
2023-02-11T01:56:29.001Z,34.40
2023-02-11T01:59:44.769Z,35.30
2023-02-11T02:02:50.586Z,34.80
2023-02-11T02:06:11.053Z,40.20
2023-02-11T02:09:28.973Z,33.40
2023-02-11T02:12:16.932Z,35.10
2023-02-11T02:15:34.665Z,38.50
2023-02-11T02:19:00.628Z,42.00
2023-02-11T02:22:32.999Z,37.20
2023-02-11T02:25:56.111Z,40.90
2023-02-11T02:29:24.925Z,41.80
2023-02-11T02:32:27.486Z,41.50
2023-02-11T02:36:07.378Z,37.00
2023-02-11T02:39:11.844Z,38.40
2023-02-11T02:41:59.994Z,40.50
2023-02-11T02:44:52.654Z,30.40
2023-02-11T02:47:40.821Z,34.00
2023-02-11T02:50:36.965Z,31.60
2023-02-11T02:54:11.891Z,37.90
2023-02-11T02:57:18.211Z,33.70
2023-02-11T03:00:23.432Z,37.40
2023-02-11T03:03:29.675Z,30.20
2023-02-11T03:06:31.329Z,30.70
2023-02-11T03:09:42.793Z,34.40
2023-02-11T03:12:33.337Z,32.00
2023-02-11T03:15:24.464Z,30.30
2023-02-11T03:18:17.262Z,26.30
2023-02-11T03:21:08.866Z,29.00
2023-02-11T03:24:03.458Z,29.50
2023-02-11T03:26:59.249Z,25.30
2023-02-11T03:30:06.314Z,29.30
2023-02-11T03:33:21.213Z,26.20
2023-02-11T03:36:22.494Z,27.40
2023-02-11T03:39:14.553Z,24.10
2023-02-11T03:42:04.352Z,21.60
2023-02-11T03:45:01.748Z,22.30
2023-02-11T03:47:59.180Z,22.70
2023-02-11T03:50:50.209Z,22.40
2023-02-11T03:53:41.601Z,17.60
2023-02-11T03:56:37.280Z,19.60
2023-02-11T03:59:26.060Z,20.00
2023-02-11T04:02:14.116Z,18.70
2023-02-11T04:05:02.463Z,20.20
2023-02-11T04:07:50.116Z,21.90
2023-02-11T04:10:38.172Z,18.70
2023-02-11T04:13:26.413Z,19.40
2023-02-11T04:16:15.382Z,16.30
2023-02-11T04:19:03.065Z,14.20
2023-02-11T04:21:51.013Z,17.60
2023-02-11T04:24:39.043Z,17.40
2023-02-11T04:27:26.950Z,19.90
2023-02-11T04:30:14.980Z,15.20
2023-02-11T04:33:02.930Z,17.00
2023-02-11T04:35:51.206Z,16.00
2023-02-11T04:38:39.314Z,13.90
2023-02-11T04:41:27.440Z,15.20
2023-02-11T04:44:15.604Z,14.40
2023-02-11T04:47:03.287Z,14.10
2023-02-11T04:49:51.136Z,13.50
2023-02-11T04:52:38.881Z,13.30
2023-02-11T04:55:26.884Z,13.20
2023-02-11T04:58:14.655Z,13.00
2023-02-11T05:01:12.664Z,14.70
2023-02-11T05:04:00.475Z,11.20
2023-02-11T05:06:48.448Z,11.70
2023-02-11T05:09:36.400Z,14.30
2023-02-11T05:12:24.343Z,13.70
2023-02-11T05:15:11.966Z,13.30
2023-02-11T05:17:59.700Z,13.90
2023-02-11T05:20:47.761Z,15.10
2023-02-11T05:23:36.626Z,13.20
2023-02-11T05:26:24.733Z,13.00
2023-02-11T05:29:12.428Z,13.20
2023-02-11T05:32:00.466Z,10.80
2023-02-11T05:34:48.505Z,10.40
2023-02-11T05:37:36.802Z,11.50
2023-02-11T05:40:24.623Z,12.90
2023-02-11T05:43:12.430Z,12.50
2023-02-11T05:46:00.315Z,12.80
2023-02-11T05:48:48.153Z,10.30
2023-02-11T05:51:35.961Z,12.00
2023-02-11T05:54:23.897Z,10.90
2023-02-11T05:57:12.150Z,10.10
2023-02-11T06:00:00.230Z,9.30
2023-02-11T06:02:48.094Z,11.80
2023-02-11T06:05:35.751Z,10.00
2023-02-11T06:08:23.889Z,10.00
2023-02-11T06:11:11.578Z,11.10
2023-02-11T06:13:59.720Z,11.40
2023-02-11T06:16:47.833Z,10.80
2023-02-11T06:19:36.411Z,10.00
2023-02-11T06:22:24.404Z,10.50
2023-02-11T06:25:13.440Z,11.20
2023-02-11T06:28:01.793Z,11.20
2023-02-11T06:30:49.978Z,11.30
2023-02-11T06:33:38.906Z,11.50
2023-02-11T06:36:26.807Z,10.40
2023-02-11T06:39:14.959Z,12.70
2023-02-11T06:42:03.920Z,12.00
2023-02-11T06:44:52.828Z,10.40
2023-02-11T06:47:41.420Z,11.70
2023-02-11T06:50:29.018Z,11.70
2023-02-11T06:53:16.787Z,11.30
2023-02-11T06:56:07.519Z,13.00
2023-02-11T06:58:56.953Z,11.20
2023-02-11T07:01:45.212Z,9.60
2023-02-11T07:04:33.164Z,11.20
2023-02-11T07:07:21.526Z,13.70
2023-02-11T07:10:09.586Z,11.70
2023-02-11T07:12:58.833Z,10.40
2023-02-11T07:15:47.181Z,10.70
2023-02-11T07:18:35.409Z,11.00
2023-02-11T07:21:26.754Z,12.40
2023-02-11T07:24:15.439Z,11.30
2023-02-11T07:27:03.239Z,9.70
2023-02-11T07:29:51.149Z,9.20
2023-02-11T07:32:38.961Z,11.60
2023-02-11T07:35:27.005Z,12.20
2023-02-11T07:38:14.848Z,9.90
2023-02-11T07:41:07.088Z,11.00
2023-02-11T07:43:55.120Z,12.80
2023-02-11T07:46:45.280Z,11.80
2023-02-11T07:49:33.535Z,11.20
2023-02-11T07:52:21.446Z,12.10
2023-02-11T07:55:10.185Z,13.00
2023-02-11T07:57:58.175Z,12.90
2023-02-11T08:00:46.200Z,12.30
2023-02-11T08:03:36.243Z,12.00
2023-02-11T08:06:28.132Z,10.50
2023-02-11T08:09:17.035Z,10.20
2023-02-11T08:12:05.286Z,9.50
2023-02-11T08:14:53.039Z,10.30
2023-02-11T08:17:40.858Z,9.80
2023-02-11T08:20:29.266Z,9.20
2023-02-11T08:23:17.089Z,11.90
2023-02-11T08:26:15.117Z,12.70
2023-02-11T08:29:09.388Z,9.70
2023-02-11T08:31:57.320Z,10.00
2023-02-11T08:34:45.379Z,9.20
2023-02-11T08:37:33.956Z,10.60
2023-02-11T08:40:22.788Z,7.00
2023-02-11T08:43:10.992Z,7.40
2023-02-11T08:46:02.021Z,8.30
2023-02-11T08:48:50.899Z,8.00
2023-02-11T08:51:38.973Z,7.80
2023-02-11T08:54:26.802Z,7.20
2023-02-11T08:57:14.379Z,8.80
2023-02-11T09:00:03.610Z,7.30
2023-02-11T09:02:51.832Z,7.30
2023-02-11T09:05:48.199Z,7.60
2023-02-11T09:08:38.885Z,8.20
2023-02-11T09:11:33.037Z,7.20
2023-02-11T09:14:24.638Z,6.70
2023-02-11T09:17:12.744Z,6.90
2023-02-11T09:20:00.890Z,6.50
2023-02-11T09:22:48.867Z,8.50
2023-02-11T09:25:41.255Z,7.10
2023-02-11T09:28:29.065Z,8.40
2023-02-11T09:31:22.298Z,9.60
2023-02-11T09:34:12.088Z,8.80
2023-02-11T09:36:59.744Z,8.00
2023-02-11T09:39:47.812Z,6.50
2023-02-11T09:43:02.353Z,7.50
2023-02-11T09:45:55.821Z,6.20
2023-02-11T09:48:47.994Z,7.50
2023-02-11T09:51:49.869Z,7.20
2023-02-11T09:55:05.119Z,8.90
2023-02-11T09:57:53.853Z,7.70
2023-02-11T10:00:57.300Z,7.60
2023-02-11T10:03:51.198Z,8.90
2023-02-11T10:06:45.307Z,8.70
2023-02-11T10:09:35.609Z,8.20
2023-02-11T10:12:38.941Z,8.20
2023-02-11T10:15:52.308Z,11.40
2023-02-11T10:19:11.363Z,10.90
2023-02-11T10:22:25.751Z,15.30
2023-02-11T10:25:21.459Z,13.90
2023-02-11T10:28:20.179Z,19.00
2023-02-11T10:31:23.186Z,10.10
2023-02-11T10:34:13.726Z,13.00
2023-02-11T10:37:01.536Z,11.80
2023-02-11T10:39:49.437Z,17.70
2023-02-11T10:42:37.560Z,13.20
2023-02-11T10:45:45.064Z,21.30
2023-02-11T10:48:43.183Z,15.60
2023-02-11T10:51:34.307Z,14.30
2023-02-11T10:54:24.439Z,20.00
2023-02-11T10:57:20.189Z,15.30
2023-02-11T11:00:38.093Z,15.60
2023-02-11T11:03:32.390Z,16.30
2023-02-11T11:06:33.025Z,14.50
2023-02-11T11:09:43.559Z,16.60
2023-02-11T11:12:45.629Z,16.50
2023-02-11T11:15:33.514Z,18.90
2023-02-11T11:18:23.219Z,16.40
2023-02-11T11:21:24.629Z,15.80
2023-02-11T11:24:24.555Z,14.00
2023-02-11T11:27:24.900Z,16.20
2023-02-11T11:30:17.227Z,14.10
2023-02-11T11:33:05.422Z,17.30
2023-02-11T11:36:07.818Z,11.20
2023-02-11T11:39:00.961Z,14.90
2023-02-11T11:42:05.925Z,16.30
2023-02-11T11:45:10.266Z,20.40
2023-02-11T11:48:23.658Z,16.70
2023-02-11T11:51:12.801Z,17.70
2023-02-11T11:54:06.690Z,13.90
2023-02-11T11:57:04.011Z,15.90
2023-02-11T11:59:52.442Z,16.60
2023-02-11T12:03:00.433Z,14.00
2023-02-11T12:06:06.311Z,19.20
2023-02-11T12:09:41.691Z,13.70
2023-02-11T12:13:00.520Z,15.50
2023-02-11T12:16:31.452Z,16.20
2023-02-11T12:20:18.227Z,14.90
2023-02-11T12:23:30.770Z,15.00
2023-02-11T12:26:23.947Z,15.50
2023-02-11T12:30:00.513Z,16.30
2023-02-11T12:33:51.621Z,15.20
2023-02-11T12:36:55.444Z,14.00
2023-02-11T12:39:52.133Z,20.20
2023-02-11T12:43:17.952Z,15.70
2023-02-11T12:46:23.804Z,17.90
2023-02-11T12:49:23.143Z,16.90
2023-02-11T12:52:21.513Z,20.10
2023-02-11T12:55:24.520Z,16.70
2023-02-11T12:58:29.645Z,13.50
2023-02-11T13:01:34.143Z,17.50
2023-02-11T13:04:35.223Z,12.80
2023-02-11T13:07:31.270Z,16.90
2023-02-11T13:10:30.230Z,15.80
2023-02-11T13:13:39.352Z,14.70
2023-02-11T13:16:33.779Z,15.70
2023-02-11T13:19:42.597Z,15.20
2023-02-11T13:22:49.240Z,13.20
2023-02-11T13:25:49.222Z,15.10
2023-02-11T13:29:13.412Z,14.80
2023-02-11T13:32:14.629Z,16.20
2023-02-11T13:35:02.413Z,15.90
2023-02-11T13:37:50.389Z,17.60
2023-02-11T13:40:40.078Z,15.10
2023-02-11T13:43:29.630Z,12.20
2023-02-11T13:46:18.903Z,16.30
2023-02-11T13:49:20.160Z,14.80
2023-02-11T13:52:32.323Z,15.30
2023-02-11T13:55:24.503Z,19.40
2023-02-11T13:58:12.490Z,18.90
2023-02-11T14:01:00.608Z,19.70
2023-02-11T14:04:38.888Z,15.30
2023-02-11T14:07:51.601Z,15.30
2023-02-11T14:10:41.973Z,17.00
2023-02-11T14:13:56.753Z,16.80
2023-02-11T14:16:59.841Z,13.70
2023-02-11T14:19:49.506Z,15.00
2023-02-11T14:22:49.652Z,16.10
2023-02-11T14:25:40.887Z,14.40
2023-02-11T14:28:34.473Z,13.10
2023-02-11T14:31:43.022Z,15.60
2023-02-11T14:34:42.837Z,17.10
2023-02-11T14:37:39.699Z,14.00
2023-02-11T14:40:58.872Z,15.20
2023-02-11T14:43:55.157Z,14.60
2023-02-11T14:46:48.391Z,14.50
2023-02-11T14:49:40.649Z,14.00
2023-02-11T14:52:36.913Z,17.80
2023-02-11T14:55:29.394Z,18.10
2023-02-11T14:58:21.090Z,14.80
2023-02-11T15:01:41.638Z,18.60
2023-02-11T15:04:33.626Z,15.90
2023-02-11T15:07:22.428Z,14.40
2023-02-11T15:10:21.305Z,15.00
2023-02-11T15:13:16.687Z,17.20
2023-02-11T15:16:11.254Z,14.30
2023-02-11T15:19:07.534Z,13.50
2023-02-11T15:21:56.976Z,16.50
2023-02-11T15:24:45.114Z,14.20
2023-02-11T15:27:56.796Z,19.40
2023-02-11T15:30:44.944Z,18.60
2023-02-11T15:33:33.368Z,17.10
2023-02-11T15:36:28.904Z,14.90
2023-02-11T15:39:41.228Z,15.40
2023-02-11T15:42:40.794Z,15.50
2023-02-11T15:45:40.511Z,16.00
2023-02-11T15:48:47.632Z,15.40
2023-02-11T15:51:39.992Z,14.10
2023-02-11T15:54:34.409Z,13.40
2023-02-11T15:57:23.320Z,14.50
2023-02-11T16:00:28.702Z,12.90
2023-02-11T16:03:24.586Z,11.40
2023-02-11T16:06:35.964Z,11.00
2023-02-11T16:09:37.125Z,11.70
2023-02-11T16:12:30.315Z,14.50
2023-02-11T16:15:46.912Z,11.50
2023-02-11T16:19:03.282Z,10.10
2023-02-11T16:21:53.589Z,12.20
2023-02-11T16:24:42.091Z,12.90
2023-02-11T16:27:42.204Z,11.00
2023-02-11T16:30:40.625Z,9.20
2023-02-11T16:33:28.903Z,12.60
2023-02-11T16:36:17.429Z,14.90
2023-02-11T16:39:05.796Z,16.50
2023-02-11T16:41:53.743Z,12.40
2023-02-11T16:44:41.772Z,14.50
2023-02-11T16:47:31.316Z,12.70
2023-02-11T16:50:25.334Z,16.80
2023-02-11T16:53:18.737Z,19.70
2023-02-11T16:56:06.936Z,14.50
2023-02-11T16:58:55.105Z,10.50
2023-02-11T17:01:44.628Z,11.00
2023-02-11T17:04:33.774Z,12.00
2023-02-11T17:07:22.166Z,11.30
2023-02-11T17:10:20.692Z,12.50
2023-02-11T17:13:08.986Z,9.30
2023-02-11T17:15:57.024Z,9.30
2023-02-11T17:18:45.549Z,8.40
2023-02-11T17:21:34.030Z,9.90
2023-02-11T17:24:22.937Z,8.50
2023-02-11T17:27:12.207Z,6.50
2023-02-11T17:30:00.198Z,7.80
2023-02-11T17:32:48.148Z,8.90
2023-02-11T17:35:40.644Z,9.30
2023-02-11T17:38:28.433Z,7.80
2023-02-11T17:41:17.114Z,8.10
2023-02-11T17:44:07.502Z,10.20
2023-02-11T17:46:56.842Z,9.30
2023-02-11T17:49:44.784Z,11.30
2023-02-11T17:52:32.737Z,9.20
2023-02-11T17:55:20.538Z,8.40
2023-02-11T17:58:08.534Z,7.00
2023-02-11T18:00:59.236Z,7.80
2023-02-11T18:03:47.432Z,9.50
2023-02-11T18:06:35.630Z,7.70
2023-02-11T18:09:25.020Z,8.80
2023-02-11T18:12:13.139Z,6.80
2023-02-11T18:15:01.318Z,8.10
2023-02-11T18:17:49.295Z,6.80
2023-02-11T18:20:37.587Z,9.10
2023-02-11T18:23:26.629Z,7.40
2023-02-11T18:26:17.976Z,8.50
2023-02-11T18:29:07.117Z,9.40
2023-02-11T18:31:57.359Z,9.80
2023-02-11T18:34:45.413Z,11.60
2023-02-11T18:37:34.906Z,11.50
2023-02-11T18:40:22.934Z,11.40
2023-02-11T18:43:10.873Z,11.40
2023-02-11T18:45:59.457Z,15.60
2023-02-11T18:48:47.400Z,8.40
2023-02-11T18:51:38.041Z,8.90
2023-02-11T18:54:26.016Z,9.30
2023-02-11T18:57:13.891Z,9.40
2023-02-11T19:00:02.139Z,11.10
2023-02-11T19:02:50.467Z,13.60
2023-02-11T19:05:48.608Z,8.30
2023-02-11T19:08:36.590Z,10.90
2023-02-11T19:11:45.129Z,12.10
2023-02-11T19:14:34.535Z,10.10
2023-02-11T19:17:22.600Z,12.40
2023-02-11T19:20:11.182Z,10.30
2023-02-11T19:23:00.850Z,10.50
2023-02-11T19:25:49.302Z,8.20
2023-02-11T19:28:37.825Z,11.90
2023-02-11T19:31:26.634Z,12.10
2023-02-11T19:34:16.890Z,15.30
2023-02-11T19:37:05.019Z,14.80
2023-02-11T19:39:54.627Z,9.60
2023-02-11T19:42:43.127Z,13.50
2023-02-11T19:45:30.806Z,14.50
2023-02-11T19:48:18.831Z,12.90
2023-02-11T19:51:13.197Z,9.60
2023-02-11T19:54:01.365Z,13.00
2023-02-11T19:56:49.751Z,8.70
2023-02-11T19:59:37.644Z,9.80
2023-02-11T20:02:25.746Z,14.50
2023-02-11T20:05:13.863Z,10.10
2023-02-11T20:08:01.745Z,11.30
2023-02-11T20:10:50.164Z,12.00
2023-02-11T20:13:39.384Z,11.10
2023-02-11T20:16:46.039Z,9.80
2023-02-11T20:19:36.142Z,10.60
2023-02-11T20:22:24.063Z,8.20
2023-02-11T20:25:11.971Z,7.80
2023-02-11T20:28:00.213Z,7.80
2023-02-11T20:30:59.538Z,11.10
2023-02-11T20:33:48.751Z,15.00
2023-02-11T20:36:38.757Z,18.70
2023-02-11T20:39:27.543Z,10.70
2023-02-11T20:42:15.744Z,10.10
2023-02-11T20:45:03.955Z,11.60
2023-02-11T20:47:51.761Z,9.50
2023-02-11T20:50:40.104Z,9.50
2023-02-11T20:53:28.803Z,11.30
2023-02-11T20:56:23.709Z,9.40
2023-02-11T20:59:14.059Z,6.80
2023-02-11T21:02:02.352Z,6.20
2023-02-11T21:04:50.191Z,7.10
2023-02-11T21:07:39.206Z,9.50
2023-02-11T21:10:27.541Z,10.90
2023-02-11T21:13:15.972Z,11.20
2023-02-11T21:16:04.391Z,10.30
2023-02-11T21:18:52.729Z,11.60
2023-02-11T21:21:41.270Z,10.20
2023-02-11T21:24:30.971Z,13.20
2023-02-11T21:27:19.183Z,11.40
2023-02-11T21:30:08.376Z,16.30
2023-02-11T21:32:59.212Z,11.60
2023-02-11T21:35:47.023Z,10.10
2023-02-11T21:38:35.946Z,7.60
2023-02-11T21:41:24.989Z,8.10
2023-02-11T21:44:13.011Z,9.50
2023-02-11T21:47:01.281Z,9.60
2023-02-11T21:49:48.958Z,11.30
2023-02-11T21:52:37.058Z,14.60
2023-02-11T21:55:25.215Z,9.80
2023-02-11T21:58:14.112Z,11.10
2023-02-11T22:01:02.689Z,9.80
2023-02-11T22:03:50.997Z,9.20
2023-02-11T22:06:39.227Z,12.00
2023-02-11T22:09:27.099Z,13.20
2023-02-11T22:12:15.201Z,14.20
2023-02-11T22:15:03.084Z,13.20
2023-02-11T22:17:50.973Z,14.20
2023-02-11T22:20:39.072Z,13.90
2023-02-11T22:23:27.983Z,11.30
2023-02-11T22:26:21.945Z,11.80
2023-02-11T22:29:10.859Z,13.70
2023-02-11T22:31:59.059Z,10.10
2023-02-11T22:34:46.933Z,8.20
2023-02-11T22:37:34.609Z,8.60
2023-02-11T22:40:23.495Z,12.00
2023-02-11T22:43:11.273Z,12.20
2023-02-11T22:46:04.889Z,11.10
2023-02-11T22:48:53.477Z,20.70
2023-02-11T22:51:41.783Z,14.00
2023-02-11T22:54:29.483Z,10.90
2023-02-11T22:57:17.340Z,11.30
2023-02-11T23:00:10.155Z,15.20
2023-02-11T23:02:58.183Z,13.80
2023-02-11T23:05:46.085Z,10.00
2023-02-11T23:08:35.259Z,9.00
2023-02-11T23:11:28.947Z,8.90
2023-02-11T23:14:16.626Z,11.00
2023-02-11T23:17:04.770Z,8.60
2023-02-11T23:19:52.803Z,17.70
2023-02-11T23:22:40.941Z,18.70
2023-02-11T23:25:29.262Z,17.70
2023-02-11T23:28:17.578Z,12.70
2023-02-11T23:31:26.203Z,14.20
2023-02-11T23:34:23.901Z,15.80
2023-02-11T23:37:12.058Z,12.90
2023-02-11T23:40:00.043Z,13.10
2023-02-11T23:42:49.174Z,10.10
2023-02-11T23:45:37.515Z,13.10
2023-02-11T23:48:26.497Z,10.00
2023-02-11T23:51:14.672Z,9.90
2023-02-11T23:54:03.295Z,10.90
2023-02-11T23:56:50.920Z,11.20
2023-02-11T23:59:39.048Z,10.70
